createdAt,value
2022-09-12T00:01:08.195Z,7.00
2022-09-12T00:03:36.351Z,7.65
2022-09-12T00:06:10.351Z,8.00
2022-09-12T00:08:38.553Z,7.68
2022-09-12T00:11:10.002Z,7.78
2022-09-12T00:13:41.652Z,7.90
2022-09-12T00:16:16.731Z,7.50
2022-09-12T00:18:46.806Z,7.50
2022-09-12T00:21:16.132Z,7.55
2022-09-12T00:23:44.600Z,6.90
2022-09-12T00:26:14.666Z,7.05
2022-09-12T00:28:42.943Z,7.72
2022-09-12T00:31:12.676Z,7.03
2022-09-12T00:33:40.969Z,7.03
2022-09-12T00:36:11.626Z,6.90
2022-09-12T00:38:42.055Z,6.82
2022-09-12T00:41:16.858Z,6.18
2022-09-12T00:43:45.923Z,6.50
2022-09-12T00:46:28.841Z,6.28
2022-09-12T00:49:02.639Z,6.82
2022-09-12T00:51:33.197Z,6.28
2022-09-12T00:54:04.530Z,6.13
2022-09-12T00:56:34.127Z,6.70
2022-09-12T00:59:06.417Z,6.25
2022-09-12T01:01:34.965Z,6.28
2022-09-12T01:04:05.712Z,6.00
2022-09-12T01:06:38.102Z,6.18
2022-09-12T01:09:06.668Z,6.20
2022-09-12T01:11:39.892Z,6.45
2022-09-12T01:14:10.680Z,5.82
2022-09-12T01:16:39.370Z,5.60
2022-09-12T01:19:24.389Z,5.88
2022-09-12T01:22:03.084Z,5.88
2022-09-12T01:24:59.411Z,5.63
2022-09-12T01:27:59.217Z,5.60
2022-09-12T01:30:43.090Z,6.25
2022-09-12T01:33:36.422Z,5.70
2022-09-12T01:36:42.412Z,5.60
2022-09-12T01:39:18.417Z,5.88
2022-09-12T01:41:54.528Z,5.53
2022-09-12T01:44:30.257Z,5.35
2022-09-12T01:47:03.524Z,5.45
2022-09-12T01:49:37.479Z,5.43
2022-09-12T01:52:12.110Z,5.40
2022-09-12T01:54:44.862Z,5.45
2022-09-12T01:57:19.853Z,5.47
2022-09-12T01:59:52.037Z,5.45
2022-09-12T02:04:58.028Z,5.55
2022-09-12T02:07:32.207Z,5.38
2022-09-12T02:10:07.437Z,4.95
2022-09-12T02:12:42.558Z,5.25
2022-09-12T02:15:13.614Z,4.68
2022-09-12T02:17:46.641Z,5.55
2022-09-12T02:20:44.034Z,5.10
2022-09-12T02:25:43.126Z,4.90
2022-09-12T02:28:15.092Z,4.72
2022-09-12T02:30:49.451Z,4.93
2022-09-12T02:33:26.689Z,4.80
2022-09-12T02:36:03.171Z,4.82
2022-09-12T02:38:38.827Z,4.63
2022-09-12T02:41:07.429Z,4.78
2022-09-12T02:43:35.347Z,5.20
2022-09-12T02:46:03.206Z,5.07
2022-09-12T02:48:41.531Z,4.68
2022-09-12T02:51:09.820Z,4.88
2022-09-12T02:53:38.599Z,4.32
2022-09-12T02:56:12.139Z,4.68
2022-09-12T02:58:40.224Z,4.57
2022-09-12T03:01:16.804Z,3.72
2022-09-12T03:03:59.083Z,4.30
2022-09-12T03:06:34.784Z,4.70
2022-09-12T03:09:13.610Z,4.15
2022-09-12T03:11:58.042Z,4.45
2022-09-12T03:14:44.713Z,4.47
2022-09-12T03:17:28.402Z,4.20
2022-09-12T03:20:03.336Z,4.10
2022-09-12T03:22:40.068Z,4.35
2022-09-12T03:25:16.585Z,4.18
2022-09-12T03:27:48.773Z,4.35
2022-09-12T03:32:46.628Z,4.32
2022-09-12T03:35:22.239Z,4.18
2022-09-12T03:37:54.502Z,4.10
2022-09-12T03:40:22.401Z,4.18
2022-09-12T03:42:50.194Z,4.07
2022-09-12T03:45:18.071Z,4.25
2022-09-12T03:47:45.985Z,3.90
2022-09-12T03:50:15.327Z,4.35
2022-09-12T03:52:43.189Z,4.20
2022-09-12T03:55:12.037Z,4.25
2022-09-12T03:57:39.910Z,3.70
2022-09-12T04:00:09.951Z,3.92
2022-09-12T04:02:38.218Z,4.18
2022-09-12T04:05:06.548Z,3.97
2022-09-12T04:07:35.893Z,3.92
2022-09-12T04:10:04.115Z,3.90
2022-09-12T04:12:31.981Z,3.88
2022-09-12T04:14:59.786Z,4.00
2022-09-12T04:17:27.638Z,3.85
2022-09-12T04:19:55.427Z,4.03
2022-09-12T04:22:23.845Z,3.83
2022-09-12T04:24:53.105Z,3.45
2022-09-12T04:27:22.023Z,3.60
2022-09-12T04:29:49.846Z,3.78
2022-09-12T04:32:18.869Z,3.65
2022-09-12T04:34:47.071Z,3.90
2022-09-12T04:37:15.014Z,3.58
2022-09-12T04:39:42.920Z,3.42
2022-09-12T04:42:12.441Z,3.22
2022-09-12T04:44:40.245Z,3.85
2022-09-12T04:47:08.125Z,3.80
2022-09-12T04:49:36.047Z,3.28
2022-09-12T04:52:04.101Z,3.50
2022-09-12T04:54:34.681Z,3.75
2022-09-12T04:57:02.635Z,3.50
2022-09-12T04:59:34.429Z,3.83
2022-09-12T05:02:02.656Z,3.53
2022-09-12T05:04:31.589Z,3.53
2022-09-12T05:06:59.966Z,3.42
2022-09-12T05:09:27.947Z,4.07
2022-09-12T05:12:04.693Z,3.45
2022-09-12T05:14:35.603Z,3.97
2022-09-12T05:17:06.449Z,3.35
2022-09-12T05:19:34.279Z,3.47
2022-09-12T05:22:06.633Z,4.10
2022-09-12T05:24:35.136Z,3.75
2022-09-12T05:27:03.450Z,3.72
2022-09-12T05:29:31.368Z,3.78
2022-09-12T05:32:00.542Z,3.75
2022-09-12T05:34:28.560Z,3.90
2022-09-12T05:36:56.423Z,3.80
2022-09-12T05:39:24.621Z,3.92
2022-09-12T05:41:52.462Z,3.35
2022-09-12T05:44:20.314Z,3.80
2022-09-12T05:46:50.810Z,3.60
2022-09-12T05:49:21.460Z,3.90
2022-09-12T05:51:49.767Z,3.60
2022-09-12T05:54:21.223Z,3.53
2022-09-12T05:56:49.444Z,3.97
2022-09-12T05:59:18.842Z,3.55
2022-09-12T06:01:46.846Z,3.70
2022-09-12T06:04:14.848Z,3.83
2022-09-12T06:06:45.994Z,4.07
2022-09-12T06:09:14.971Z,4.15
2022-09-12T06:11:43.622Z,4.13
2022-09-12T06:14:15.413Z,4.07
2022-09-12T06:16:43.482Z,3.80
2022-09-12T06:19:16.200Z,4.15
2022-09-12T06:21:45.603Z,4.47
2022-09-12T06:24:16.254Z,4.35
2022-09-12T06:26:44.910Z,4.53
2022-09-12T06:29:13.358Z,5.00
2022-09-12T06:31:45.321Z,4.97
2022-09-12T06:34:16.002Z,5.15
2022-09-12T06:36:46.896Z,4.45
2022-09-12T06:39:16.297Z,5.32
2022-09-12T06:41:44.630Z,5.97
2022-09-12T06:44:15.549Z,5.80
2022-09-12T06:46:44.242Z,4.80
2022-09-12T06:49:13.098Z,5.50
2022-09-12T06:51:42.155Z,6.40
2022-09-12T06:54:13.745Z,6.40
2022-09-12T06:56:41.735Z,6.72
2022-09-12T06:59:09.848Z,8.25
2022-09-12T07:01:37.931Z,11.27
2022-09-12T07:04:06.544Z,13.07
2022-09-12T07:06:40.182Z,13.27
2022-09-12T07:09:12.401Z,12.35
2022-09-12T07:14:14.063Z,13.30
2022-09-12T07:16:42.082Z,12.98
2022-09-12T07:19:10.783Z,14.18
2022-09-12T07:21:40.886Z,15.23
2022-09-12T07:24:11.342Z,15.50
2022-09-12T07:26:42.029Z,17.98
2022-09-12T07:32:05.598Z,18.33
2022-09-12T07:34:33.803Z,17.05
2022-09-12T07:37:05.001Z,15.52
2022-09-12T07:39:34.162Z,15.77
2022-09-12T07:42:02.007Z,15.88
2022-09-12T07:44:30.244Z,16.58
2022-09-12T07:46:58.035Z,16.38
2022-09-12T07:49:25.959Z,17.08
2022-09-12T07:51:53.948Z,16.17
2022-09-12T07:54:21.879Z,18.55
2022-09-12T07:56:51.703Z,20.70
2022-09-12T07:59:41.502Z,21.50
2022-09-12T08:02:13.483Z,22.00
2022-09-12T08:04:44.555Z,21.15
2022-09-12T08:07:12.829Z,20.80
2022-09-12T08:09:40.669Z,22.27
2022-09-12T08:12:10.219Z,21.88
2022-09-12T08:14:38.128Z,22.48
2022-09-12T08:17:06.716Z,22.25
2022-09-12T08:19:34.613Z,20.75
2022-09-12T08:22:02.861Z,21.25
2022-09-12T08:24:32.025Z,21.77
2022-09-12T08:26:59.872Z,20.30
2022-09-12T08:29:32.125Z,20.90
2022-09-12T08:32:00.358Z,19.80
2022-09-12T08:34:28.172Z,19.15
2022-09-12T08:36:55.994Z,19.65
2022-09-12T08:39:24.689Z,18.13
2022-09-12T08:42:01.509Z,17.23
2022-09-12T08:45:03.538Z,17.10
2022-09-12T08:47:34.325Z,17.65
2022-09-12T08:50:07.798Z,18.13
2022-09-12T08:52:42.087Z,17.20
2022-09-12T08:55:25.437Z,17.45
2022-09-12T08:57:53.740Z,16.67
2022-09-12T09:00:23.244Z,16.15
2022-09-12T09:03:16.816Z,16.45
2022-09-12T09:05:52.212Z,16.13
2022-09-12T09:08:33.909Z,16.27
2022-09-12T09:11:13.521Z,20.70
2022-09-12T09:16:39.834Z,14.55
2022-09-12T09:19:18.548Z,12.57
2022-09-12T09:21:52.419Z,15.02
2022-09-12T09:24:25.001Z,14.23
2022-09-12T09:26:59.184Z,13.48
2022-09-12T09:29:31.106Z,12.68
2022-09-12T09:32:04.655Z,13.57
2022-09-12T09:34:33.190Z,12.75
2022-09-12T09:37:08.300Z,12.02
2022-09-12T09:39:48.056Z,11.50
2022-09-12T09:42:27.404Z,11.88
2022-09-12T09:44:58.787Z,11.82
2022-09-12T09:47:28.413Z,11.57
2022-09-12T09:49:56.512Z,11.15
2022-09-12T09:52:29.499Z,11.90
2022-09-12T09:55:00.613Z,11.23
2022-09-12T09:57:43.428Z,10.68
2022-09-12T10:00:26.986Z,10.70
2022-09-12T10:03:27.319Z,12.05
2022-09-12T10:05:58.177Z,10.65
2022-09-12T10:08:27.870Z,9.82
2022-09-12T10:11:02.091Z,10.52
2022-09-12T10:13:40.573Z,10.30
2022-09-12T10:16:20.143Z,9.75
2022-09-12T10:18:51.343Z,9.07
2022-09-12T10:21:29.582Z,8.20
2022-09-12T10:24:21.781Z,9.93
2022-09-12T10:26:56.760Z,9.18
2022-09-12T10:29:29.034Z,9.00
2022-09-12T10:31:59.739Z,9.73
2022-09-12T10:34:33.482Z,8.60
2022-09-12T10:37:05.509Z,9.70
2022-09-12T10:39:36.074Z,8.50
2022-09-12T10:42:05.455Z,8.07
2022-09-12T10:44:35.578Z,7.47
2022-09-12T10:49:51.205Z,6.65
2022-09-12T10:52:23.293Z,6.22
2022-09-12T10:54:51.383Z,6.57
2022-09-12T10:57:45.625Z,6.00
2022-09-12T11:00:17.828Z,5.75
2022-09-12T11:05:40.224Z,5.47
2022-09-12T11:08:22.516Z,5.60
2022-09-12T11:11:08.934Z,5.60
2022-09-12T11:13:56.259Z,7.90
2022-09-12T11:16:32.363Z,5.65
2022-09-12T11:19:23.329Z,6.47
2022-09-12T11:22:07.751Z,6.30
2022-09-12T11:25:11.327Z,5.63
2022-09-12T11:28:00.255Z,8.10
2022-09-12T11:30:35.980Z,15.02
2022-09-12T11:33:15.939Z,13.13
2022-09-12T11:35:55.016Z,8.18
2022-09-12T11:38:41.822Z,7.85
2022-09-12T11:41:12.740Z,7.85
2022-09-12T11:43:44.703Z,8.88
2022-09-12T11:46:19.241Z,8.90
2022-09-12T11:48:52.685Z,8.50
2022-09-12T11:51:22.455Z,8.00
2022-09-12T11:54:03.443Z,8.73
2022-09-12T11:56:31.489Z,8.90
2022-09-12T11:59:10.358Z,8.50
2022-09-12T12:01:47.734Z,7.72
2022-09-12T12:04:21.649Z,7.90
2022-09-12T12:06:56.361Z,7.65
2022-09-12T12:09:25.684Z,7.43
2022-09-12T12:11:57.785Z,7.10
2022-09-12T12:16:55.906Z,6.47
2022-09-12T12:19:33.760Z,6.85
2022-09-12T12:22:13.864Z,6.20
2022-09-12T12:25:00.282Z,7.32
2022-09-12T12:27:47.369Z,6.80
2022-09-12T12:30:57.772Z,6.72
2022-09-12T12:34:01.369Z,6.20
2022-09-12T12:36:40.322Z,5.90
2022-09-12T12:39:44.816Z,6.15
2022-09-12T12:43:02.796Z,5.75
2022-09-12T12:46:08.025Z,5.30
2022-09-12T12:48:45.990Z,5.35
2022-09-12T12:51:40.038Z,5.47
2022-09-12T12:54:50.554Z,5.53
2022-09-12T12:57:27.267Z,5.85
2022-09-12T12:59:59.351Z,5.38
2022-09-12T13:02:33.174Z,4.60
2022-09-12T13:05:08.506Z,5.05
2022-09-12T13:07:39.594Z,5.88
2022-09-12T13:10:23.311Z,4.80
2022-09-12T13:12:53.550Z,4.57
2022-09-12T13:15:49.439Z,4.57
2022-09-12T13:18:24.282Z,4.32
2022-09-12T13:21:03.739Z,4.45
2022-09-12T13:23:33.471Z,4.65
2022-09-12T13:26:02.609Z,4.60
2022-09-12T13:28:32.441Z,4.53
2022-09-12T13:31:04.169Z,4.28
2022-09-12T13:33:42.878Z,4.20
2022-09-12T13:36:40.943Z,4.20
2022-09-12T13:39:21.993Z,4.00
2022-09-12T13:42:21.838Z,3.75
2022-09-12T13:44:57.938Z,4.07
2022-09-12T13:47:30.639Z,3.72
2022-09-12T13:49:59.704Z,4.10
2022-09-12T13:52:31.271Z,4.13
2022-09-12T13:55:00.549Z,4.28
2022-09-12T13:57:37.508Z,3.90
2022-09-12T14:00:19.327Z,3.60
2022-09-12T14:02:48.589Z,3.65
2022-09-12T14:05:21.306Z,3.33
2022-09-12T14:07:55.273Z,3.80
2022-09-12T14:10:31.893Z,3.70
2022-09-12T14:13:11.831Z,3.85
2022-09-12T14:15:45.440Z,3.60
2022-09-12T14:18:24.408Z,3.50
2022-09-12T14:20:56.947Z,4.30
2022-09-12T14:23:29.111Z,3.40
2022-09-12T14:28:28.239Z,3.35
2022-09-12T14:31:03.072Z,3.72
2022-09-12T14:33:34.469Z,3.33
2022-09-12T14:36:12.467Z,3.47
2022-09-12T14:38:43.615Z,3.08
2022-09-12T14:41:13.453Z,3.30
2022-09-12T14:43:45.433Z,3.28
2022-09-12T14:46:20.730Z,3.53
2022-09-12T14:48:54.905Z,3.55
2022-09-12T14:51:26.438Z,3.15
2022-09-12T14:53:54.669Z,3.15
2022-09-12T14:56:23.962Z,3.30
2022-09-12T14:58:51.859Z,3.42
2022-09-12T15:01:26.416Z,3.40
2022-09-12T15:03:56.838Z,3.40
2022-09-12T15:06:29.571Z,3.60
2022-09-12T15:08:59.547Z,3.50
2022-09-12T15:11:27.515Z,3.53
2022-09-12T15:13:55.465Z,3.30
2022-09-12T15:16:24.796Z,3.55
2022-09-12T15:18:52.578Z,3.50
2022-09-12T15:21:22.172Z,3.90
2022-09-12T15:23:51.324Z,3.40
2022-09-12T15:26:21.746Z,3.40
2022-09-12T15:28:50.060Z,3.80
2022-09-12T15:31:25.620Z,3.22
2022-09-12T15:33:53.998Z,3.38
2022-09-12T15:36:25.847Z,3.45
2022-09-12T15:38:54.108Z,3.47
2022-09-12T15:41:24.018Z,3.30
2022-09-12T15:43:52.525Z,3.35
2022-09-12T15:46:24.906Z,3.40
2022-09-12T15:48:52.815Z,3.45
2022-09-12T15:51:22.609Z,3.53
2022-09-12T15:53:51.874Z,3.38
2022-09-12T15:56:21.609Z,3.63
2022-09-12T15:58:58.837Z,3.42
2022-09-12T16:01:29.890Z,3.25
2022-09-12T16:03:58.084Z,3.45
2022-09-12T16:06:26.973Z,3.13
2022-09-12T16:08:54.815Z,3.92
2022-09-12T16:11:25.780Z,3.55
2022-09-12T16:13:54.962Z,3.22
2022-09-12T16:16:22.822Z,3.22
2022-09-12T16:18:52.154Z,116.32
2022-09-12T16:21:20.055Z,80.88
2022-09-12T16:23:48.840Z,47.70
2022-09-12T16:26:17.506Z,31.23
2022-09-12T16:28:45.711Z,16.27
2022-09-12T16:31:15.133Z,11.85
2022-09-12T16:33:43.279Z,6.03
2022-09-12T16:36:14.372Z,6.65
2022-09-12T16:38:43.083Z,6.00
2022-09-12T16:41:12.390Z,5.60
2022-09-12T16:43:40.407Z,5.10
2022-09-12T16:46:10.725Z,4.43
2022-09-12T16:48:42.551Z,4.05
2022-09-12T16:51:11.994Z,4.30
2022-09-12T16:53:40.960Z,4.72
2022-09-12T16:56:09.104Z,4.45
2022-09-12T16:58:41.757Z,4.47
2022-09-12T17:01:11.973Z,4.00
2022-09-12T17:03:40.078Z,4.20
2022-09-12T17:06:09.907Z,4.05
2022-09-12T17:08:41.465Z,4.20
2022-09-12T17:11:11.747Z,4.35
2022-09-12T17:14:03.280Z,3.88
2022-09-12T17:16:29.485Z,4.47
2022-09-12T17:18:57.325Z,4.00
2022-09-12T17:21:25.174Z,3.83
2022-09-12T17:23:54.435Z,3.75
2022-09-12T17:26:22.467Z,3.92
2022-09-12T17:28:50.552Z,3.85
2022-09-12T17:31:18.468Z,4.13
2022-09-12T17:33:46.659Z,3.88
2022-09-12T17:36:16.557Z,3.80
2022-09-12T17:38:46.155Z,3.70
2022-09-12T17:41:18.096Z,3.47
2022-09-12T17:43:46.569Z,3.72
2022-09-12T17:46:18.145Z,3.88
2022-09-12T17:48:46.070Z,3.80
2022-09-12T17:51:15.797Z,3.63
2022-09-12T17:53:43.767Z,4.00
2022-09-12T17:56:12.526Z,4.25
2022-09-12T17:58:43.289Z,4.95
2022-09-12T18:01:30.985Z,4.80
2022-09-12T18:04:01.138Z,4.80
2022-09-12T18:06:29.389Z,6.07
2022-09-12T18:08:57.320Z,4.90
2022-09-12T18:11:25.175Z,4.57
2022-09-12T18:13:54.387Z,4.70
2022-09-12T18:16:22.361Z,4.80
2022-09-12T18:18:52.490Z,4.43
2022-09-12T18:21:20.550Z,4.50
2022-09-12T18:23:48.656Z,4.25
2022-09-12T18:26:19.468Z,4.55
2022-09-12T18:28:47.494Z,4.25
2022-09-12T18:31:22.330Z,5.10
2022-09-12T18:33:50.794Z,4.80
2022-09-12T18:36:20.325Z,4.30
2022-09-12T18:38:49.123Z,4.35
2022-09-12T18:41:19.304Z,4.32
2022-09-12T18:43:47.984Z,4.30
2022-09-12T18:46:17.829Z,4.47
2022-09-12T18:48:47.836Z,4.80
2022-09-12T18:51:17.860Z,4.43
2022-09-12T18:53:51.001Z,4.05
2022-09-12T18:56:19.010Z,4.57
2022-09-12T18:58:51.773Z,4.55
2022-09-12T19:01:21.837Z,4.35
2022-09-12T19:03:51.167Z,4.57
2022-09-12T19:06:20.857Z,4.57
2022-09-12T19:08:49.795Z,4.47
2022-09-12T19:11:18.350Z,4.55
2022-09-12T19:13:48.261Z,4.35
2022-09-12T19:16:19.040Z,4.43
2022-09-12T19:18:48.092Z,4.90
2022-09-12T19:21:19.542Z,5.13
2022-09-12T19:23:47.570Z,4.50
2022-09-12T19:26:17.290Z,4.93
2022-09-12T19:31:20.160Z,4.90
2022-09-12T19:33:49.015Z,4.78
2022-09-12T19:36:43.825Z,5.20
2022-09-12T19:39:13.860Z,8.57
2022-09-12T19:41:45.238Z,6.40
2022-09-12T19:44:13.203Z,8.45
2022-09-12T19:46:41.556Z,9.63
2022-09-12T19:49:11.281Z,10.68
2022-09-12T19:51:40.830Z,10.50
2022-09-12T19:54:09.121Z,10.35
2022-09-12T19:56:36.934Z,10.80
2022-09-12T19:59:04.841Z,11.10
2022-09-12T20:01:33.219Z,11.52
2022-09-12T20:04:01.106Z,11.15
2022-09-12T20:06:29.237Z,11.40
2022-09-12T20:09:00.797Z,11.60
2022-09-12T20:11:28.620Z,13.10
2022-09-12T20:13:56.424Z,12.50
2022-09-12T20:16:28.426Z,13.68
2022-09-12T20:18:58.796Z,14.48
2022-09-12T20:21:31.771Z,14.60
2022-09-12T20:24:05.988Z,14.70
2022-09-12T20:29:02.639Z,14.50
2022-09-12T20:31:31.148Z,14.13
2022-09-12T20:33:59.139Z,14.35
2022-09-12T20:36:27.354Z,13.65
2022-09-12T20:38:58.948Z,14.30
2022-09-12T20:41:30.437Z,14.23
2022-09-12T20:44:00.878Z,13.43
2022-09-12T20:46:29.821Z,12.95
2022-09-12T20:49:00.200Z,13.83
2022-09-12T20:51:29.729Z,14.38
2022-09-12T20:53:58.728Z,13.98
2022-09-12T20:56:29.480Z,13.15
2022-09-12T20:58:57.324Z,13.75
2022-09-12T21:01:29.362Z,13.13
2022-09-12T21:03:57.364Z,12.98
2022-09-12T21:06:25.241Z,12.70
2022-09-12T21:08:54.109Z,13.38
2022-09-12T21:11:21.923Z,12.48
2022-09-12T21:13:52.731Z,12.93
2022-09-12T21:16:22.243Z,13.38
2022-09-12T21:18:55.262Z,12.48
2022-09-12T21:21:23.348Z,12.10
2022-09-12T21:23:51.697Z,12.60
2022-09-12T21:26:19.558Z,11.88
2022-09-12T21:28:47.406Z,13.23
2022-09-12T21:31:16.981Z,11.95
2022-09-12T21:33:44.886Z,11.82
2022-09-12T21:36:13.113Z,11.93
2022-09-12T21:38:40.967Z,12.38
2022-09-12T21:41:11.241Z,10.95
2022-09-12T21:43:39.888Z,11.90
2022-09-12T21:46:08.872Z,11.95
2022-09-12T21:48:38.618Z,11.25
2022-09-12T21:51:06.820Z,10.50
2022-09-12T21:53:34.716Z,10.93
2022-09-12T21:56:03.405Z,10.98
2022-09-12T21:58:31.346Z,11.38
2022-09-12T22:00:59.787Z,10.85
2022-09-12T22:03:27.694Z,11.70
2022-09-12T22:06:01.528Z,10.55
2022-09-12T22:08:31.032Z,9.98
2022-09-12T22:11:02.860Z,11.15
2022-09-12T22:13:32.154Z,9.70
2022-09-12T22:16:03.666Z,10.50
2022-09-12T22:18:33.823Z,10.05
2022-09-12T22:21:05.692Z,11.15
2022-09-12T22:23:50.907Z,10.05
2022-09-12T22:26:18.844Z,10.07
2022-09-12T22:28:47.718Z,9.52
2022-09-12T22:31:16.683Z,10.45
2022-09-12T22:33:45.568Z,9.40
2022-09-12T22:36:15.479Z,9.93
2022-09-12T22:38:43.366Z,9.52
2022-09-12T22:41:13.080Z,9.38
2022-09-12T22:43:41.088Z,9.45
2022-09-12T22:46:10.320Z,9.60
2022-09-12T22:48:38.324Z,9.32
2022-09-12T22:51:06.680Z,8.75
2022-09-12T22:53:36.225Z,9.77
2022-09-12T22:56:05.542Z,9.00
2022-09-12T22:58:34.091Z,9.13
2022-09-12T23:01:01.948Z,9.13
2022-09-12T23:03:29.922Z,9.00
2022-09-12T23:05:57.765Z,9.55
2022-09-12T23:08:29.418Z,8.88
2022-09-12T23:11:07.185Z,9.38
2022-09-12T23:13:35.104Z,8.90
2022-09-12T23:16:10.173Z,8.93
2022-09-12T23:18:38.543Z,8.88
2022-09-12T23:21:09.226Z,7.97
2022-09-12T23:23:37.500Z,8.55
2022-09-12T23:26:09.268Z,9.00
2022-09-12T23:28:38.073Z,8.27
2022-09-12T23:31:07.591Z,8.63
2022-09-12T23:33:35.545Z,8.20
2022-09-12T23:36:05.334Z,8.63
2022-09-12T23:38:34.390Z,8.63
2022-09-12T23:41:03.701Z,8.80
2022-09-12T23:43:32.945Z,8.20
2022-09-12T23:46:01.317Z,7.68
2022-09-12T23:48:29.678Z,7.68
2022-09-12T23:50:57.873Z,7.85
2022-09-12T23:53:25.717Z,7.82
2022-09-12T23:55:53.864Z,7.60
2022-09-12T23:58:24.334Z,8.57
